Weather at Mirosławice Private Airport

Public forecast

Using degrees Celsius for public forecast. Weather courtesy of forecast.io.

Closest aviation weather report (METAR) to Mirosławice Private Airport

Closest report is Copernicus Wrocław Airport, 9.7 nm (18.0 km) NNE. Retrieved 2022/06/25 19:30 UTC (14 minutes ago):

EPWR 251930Z 25003KT CAVOK 23/16 Q1013

Closest aviation forecast (TAF) to Mirosławice Private Airport

Closest forecast is Copernicus Wrocław Airport, 9.7 nm (18.0 km) NNE. Retrieved 2022/06/25 18:33 UTC (1 hour ago):

TAF EPWR 251730Z 2518/2618 15006KT CAVOK PROB30 TEMPO 2612/2618 VRB15G25KT 3000 TSRA BKN050CB